Aérodrome :
LOGIN :

S'inscrire | Disclaimer

   EN    FR    IT 

 










Légende :    VFR   VFR Marginal   IFR   IFR Intensif   IFR Très Intensif
Visi : 
Plafond : 
>= 8 km
>= 3000ft
5 à 8 km
1000 à 3000 ft
1500m à 5 km
500 à 1000 ft
800 à 1500m
200 à 500 ft
< 800m
< 200 ft
Symboles :   Orages  Brouillard  Fortes neiges  Fortes précipitations  Vent > 20 kt
SIGMETs :   Divers  Orages  Givrage  Turbulence  Onde Orograph.  Cendres Volcan.







- Altitude de l'aérodrome : 13 ft
- Code IATA : SNR
- Voir les cartes d'approche


LFRZ - St-Nazaire

DERNIER METAR :
  • 231000Z AUTO 03006KT 9999 OVC008 07/06 Q1008 TEMPO 4000 SHRA BKN020TCU

METARs EXPIRÉS :
  • 230930Z AUTO 04007KT 9999 OVC007 06/06 Q1008 TEMPO 4000 SHRA BKN020TCU
  • 230900Z AUTO 06006KT 9999 OVC006 06/05 Q1008 TEMPO 4000 SHRA BKN020TCU
  • 230830Z AUTO 05006KT 9000 OVC005 06/05 Q1008 TEMPO 4000 SHRA BKN020TCU
  • 230800Z AUTO 08007KT 7000 OVC004 05/05 Q1008 TEMPO 4000 SHRA BKN020TCU
  • 230730Z AUTO 06006KT 5000 BR OVC003 05/05 Q1007 TEMPO SHRA BKN020TCU

TAF AMD TAF LFRZ
Valide du 23 à 08h jusqu'au 24 à 06h UTC


230811Z 2308/2406 08006KT 9999 BKN020
TEMPO 2308/2310 4000 BR BKN003
TEMPO 2310/2319 4000 SHRA BKN020TCU
PROB30
TEMPO 2312/2318 2000 TSRA BKN020CB
Pas de NOTAMs connus pour ce terrain.



MET'MAP, la Météo Aéronautique d'un coup d'oeil ! - Copyright ORBIFLY Décembre 2007 - Disclaimer

ORBIFLY MET'MAP TEAM :

Programmation & Développement : Alexandra Zaïnal
Conception & Développement : Baudouin d'Aumeries
Co-Programmation & Développement : Marc-Olivier Méhu
Soutien technique & logistique : Manuel Goepfert

Contact : metmap@orbifly.com




SOURCES & CREDITS :

   NOAA